sensor_id;sensor_type;location;lat;lon;timestamp;P1;durP1;ratioP1;P2;durP2;ratioP2
4963;SDS011;2497;47.410;9.740;2023-06-24T00:00:04;8.70;;;5.40;;
4963;SDS011;2497;47.410;9.740;2023-06-24T00:02:33;7.50;;;5.40;;
4963;SDS011;2497;47.410;9.740;2023-06-24T00:05:02;9.80;;;4.53;;
4963;SDS011;2497;47.410;9.740;2023-06-24T00:07:30;10.00;;;4.90;;
4963;SDS011;2497;47.410;9.740;2023-06-24T00:09:59;7.23;;;4.80;;
4963;SDS011;2497;47.410;9.740;2023-06-24T00:12:28;7.73;;;4.87;;
4963;SDS011;2497;47.410;9.740;2023-06-24T00:14:57;10.20;;;4.90;;
4963;SDS011;2497;47.410;9.740;2023-06-24T00:17:24;9.37;;;5.37;;
4963;SDS011;2497;47.410;9.740;2023-06-24T00:19:54;9.27;;;5.20;;
4963;SDS011;2497;47.410;9.740;2023-06-24T00:22:21;8.03;;;4.50;;
4963;SDS011;2497;47.410;9.740;2023-06-24T00:24:51;8.90;;;5.23;;
4963;SDS011;2497;47.410;9.740;2023-06-24T00:27:20;8.30;;;4.70;;
4963;SDS011;2497;47.410;9.740;2023-06-24T00:29:47;6.43;;;4.27;;
4963;SDS011;2497;47.410;9.740;2023-06-24T00:32:16;10.20;;;5.00;;
4963;SDS011;2497;47.410;9.740;2023-06-24T00:34:43;6.50;;;4.30;;
4963;SDS011;2497;47.410;9.740;2023-06-24T00:37:12;8.60;;;5.00;;
4963;SDS011;2497;47.410;9.740;2023-06-24T00:39:43;8.87;;;5.23;;
4963;SDS011;2497;47.410;9.740;2023-06-24T00:42:11;7.17;;;4.50;;
4963;SDS011;2497;47.410;9.740;2023-06-24T00:44:41;8.20;;;4.47;;
4963;SDS011;2497;47.410;9.740;2023-06-24T00:47:08;11.00;;;5.10;;
4963;SDS011;2497;47.410;9.740;2023-06-24T00:49:36;9.67;;;4.33;;
4963;SDS011;2497;47.410;9.740;2023-06-24T00:52:03;6.10;;;4.13;;
4963;SDS011;2497;47.410;9.740;2023-06-24T00:54:32;8.03;;;4.60;;
4963;SDS011;2497;47.410;9.740;2023-06-24T00:56:59;7.93;;;4.70;;
4963;SDS011;2497;47.410;9.740;2023-06-24T00:59:26;6.87;;;4.53;;
4963;SDS011;2497;47.410;9.740;2023-06-24T01:02:03;5.00;;;4.10;;
4963;SDS011;2497;47.410;9.740;2023-06-24T01:04:30;11.87;;;6.10;;
4963;SDS011;2497;47.410;9.740;2023-06-24T01:06:59;8.93;;;4.30;;
4963;SDS011;2497;47.410;9.740;2023-06-24T01:09:29;8.23;;;4.70;;
4963;SDS011;2497;47.410;9.740;2023-06-24T01:12:02;8.60;;;5.00;;
4963;SDS011;2497;47.410;9.740;2023-06-24T01:14:30;8.83;;;5.30;;
4963;SDS011;2497;47.410;9.740;2023-06-24T01:17:00;13.90;;;4.73;;
4963;SDS011;2497;47.410;9.740;2023-06-24T01:19:54;9.70;;;4.53;;
4963;SDS011;2497;47.410;9.740;2023-06-24T01:25:44;7.67;;;4.63;;
4963;SDS011;2497;47.410;9.740;2023-06-24T01:28:28;8.10;;;4.57;;
4963;SDS011;2497;47.410;9.740;2023-06-24T01:33:58;7.30;;;5.17;;
4963;SDS011;2497;47.410;9.740;2023-06-24T01:36:33;6.27;;;4.30;;
4963;SDS011;2497;47.410;9.740;2023-06-24T01:39:04;7.23;;;4.73;;
4963;SDS011;2497;47.410;9.740;2023-06-24T01:41:35;8.73;;;4.13;;
4963;SDS011;2497;47.410;9.740;2023-06-24T01:44:06;7.60;;;4.80;;
4963;SDS011;2497;47.410;9.740;2023-06-24T01:46:39;14.13;;;5.70;;
4963;SDS011;2497;47.410;9.740;2023-06-24T01:49:11;8.33;;;4.67;;
4963;SDS011;2497;47.410;9.740;2023-06-24T01:51:44;6.60;;;4.80;;
4963;SDS011;2497;47.410;9.740;2023-06-24T01:54:13;9.70;;;5.20;;
4963;SDS011;2497;47.410;9.740;2023-06-24T01:56:44;6.97;;;4.57;;
4963;SDS011;2497;47.410;9.740;2023-06-24T01:59:15;9.80;;;5.33;;
4963;SDS011;2497;47.410;9.740;2023-06-24T02:01:46;7.20;;;4.63;;
4963;SDS011;2497;47.410;9.740;2023-06-24T02:04:14;9.90;;;5.90;;
4963;SDS011;2497;47.410;9.740;2023-06-24T02:06:43;6.70;;;4.60;;
4963;SDS011;2497;47.410;9.740;2023-06-24T02:09:11;8.27;;;4.60;;
4963;SDS011;2497;47.410;9.740;2023-06-24T02:11:40;7.00;;;4.40;;
4963;SDS011;2497;47.410;9.740;2023-06-24T02:14:09;9.53;;;4.83;;
4963;SDS011;2497;47.410;9.740;2023-06-24T02:16:38;8.07;;;4.73;;
4963;SDS011;2497;47.410;9.740;2023-06-24T02:19:10;9.40;;;5.20;;
4963;SDS011;2497;47.410;9.740;2023-06-24T02:21:45;7.47;;;4.63;;
4963;SDS011;2497;47.410;9.740;2023-06-24T02:24:13;7.73;;;5.10;;
4963;SDS011;2497;47.410;9.740;2023-06-24T02:26:41;7.40;;;4.50;;
4963;SDS011;2497;47.410;9.740;2023-06-24T02:29:10;8.30;;;5.50;;
4963;SDS011;2497;47.410;9.740;2023-06-24T02:31:39;11.93;;;4.87;;
4963;SDS011;2497;47.410;9.740;2023-06-24T02:34:06;8.27;;;5.10;;
4963;SDS011;2497;47.410;9.740;2023-06-24T02:36:35;6.13;;;4.13;;
4963;SDS011;2497;47.410;9.740;2023-06-24T02:39:04;7.20;;;4.60;;
4963;SDS011;2497;47.410;9.740;2023-06-24T02:41:31;12.00;;;5.00;;
4963;SDS011;2497;47.410;9.740;2023-06-24T02:43:58;8.10;;;4.77;;
4963;SDS011;2497;47.410;9.740;2023-06-24T02:46:31;7.70;;;4.77;;
4963;SDS011;2497;47.410;9.740;2023-06-24T02:49:02;11.13;;;4.73;;
4963;SDS011;2497;47.410;9.740;2023-06-24T02:51:30;8.03;;;4.70;;
4963;SDS011;2497;47.410;9.740;2023-06-24T02:53:59;7.03;;;4.63;;
4963;SDS011;2497;47.410;9.740;2023-06-24T02:56:28;8.70;;;4.57;;
4963;SDS011;2497;47.410;9.740;2023-06-24T02:58:55;8.27;;;4.90;;
4963;SDS011;2497;47.410;9.740;2023-06-24T03:01:22;6.73;;;4.37;;
4963;SDS011;2497;47.410;9.740;2023-06-24T03:03:51;10.70;;;5.00;;
4963;SDS011;2497;47.410;9.740;2023-06-24T03:06:20;9.47;;;5.00;;
4963;SDS011;2497;47.410;9.740;2023-06-24T03:08:48;7.27;;;5.00;;
4963;SDS011;2497;47.410;9.740;2023-06-24T03:11:17;9.03;;;5.57;;
4963;SDS011;2497;47.410;9.740;2023-06-24T03:13:45;10.40;;;4.20;;
4963;SDS011;2497;47.410;9.740;2023-06-24T03:16:12;9.37;;;5.23;;
4963;SDS011;2497;47.410;9.740;2023-06-24T03:18:41;8.07;;;4.70;;
4963;SDS011;2497;47.410;9.740;2023-06-24T03:21:08;9.80;;;4.63;;
4963;SDS011;2497;47.410;9.740;2023-06-24T03:23:35;7.93;;;5.00;;
4963;SDS011;2497;47.410;9.740;2023-06-24T03:26:02;8.67;;;5.13;;
4963;SDS011;2497;47.410;9.740;2023-06-24T03:28:32;8.77;;;5.33;;
4963;SDS011;2497;47.410;9.740;2023-06-24T03:30:59;5.90;;;3.80;;
4963;SDS011;2497;47.410;9.740;2023-06-24T03:33:26;7.90;;;4.10;;
4963;SDS011;2497;47.410;9.740;2023-06-24T03:35:56;9.97;;;4.77;;
4963;SDS011;2497;47.410;9.740;2023-06-24T03:38:23;6.10;;;4.60;;
4963;SDS011;2497;47.410;9.740;2023-06-24T03:40:50;6.73;;;4.97;;
4963;SDS011;2497;47.410;9.740;2023-06-24T03:43:17;10.57;;;4.50;;
4963;SDS011;2497;47.410;9.740;2023-06-24T03:45:46;7.67;;;5.07;;
4963;SDS011;2497;47.410;9.740;2023-06-24T03:48:13;8.00;;;4.90;;
4963;SDS011;2497;47.410;9.740;2023-06-24T03:50:40;8.47;;;5.60;;
4963;SDS011;2497;47.410;9.740;2023-06-24T03:53:07;11.00;;;4.67;;
4963;SDS011;2497;47.410;9.740;2023-06-24T03:55:34;9.90;;;5.40;;
4963;SDS011;2497;47.410;9.740;2023-06-24T03:58:07;6.40;;;4.60;;
4963;SDS011;2497;47.410;9.740;2023-06-24T04:00:34;7.03;;;4.77;;
4963;SDS011;2497;47.410;9.740;2023-06-24T04:03:11;9.30;;;4.80;;
4963;SDS011;2497;47.410;9.740;2023-06-24T04:05:40;11.47;;;4.80;;
4963;SDS011;2497;47.410;9.740;2023-06-24T04:08:08;8.73;;;5.30;;
4963;SDS011;2497;47.410;9.740;2023-06-24T04:10:35;9.17;;;5.27;;
4963;SDS011;2497;47.410;9.740;2023-06-24T04:13:02;8.27;;;5.00;;
4963;SDS011;2497;47.410;9.740;2023-06-24T04:15:29;9.77;;;5.20;;
4963;SDS011;2497;47.410;9.740;2023-06-24T04:17:56;9.63;;;4.70;;
4963;SDS011;2497;47.410;9.740;2023-06-24T04:20:33;9.93;;;5.50;;
4963;SDS011;2497;47.410;9.740;2023-06-24T04:23:03;12.67;;;5.80;;
4963;SDS011;2497;47.410;9.740;2023-06-24T04:25:31;15.23;;;6.30;;
4963;SDS011;2497;47.410;9.740;2023-06-24T04:28:00;14.13;;;6.17;;
4963;SDS011;2497;47.410;9.740;2023-06-24T04:30:27;10.40;;;6.43;;
4963;SDS011;2497;47.410;9.740;2023-06-24T04:32:54;12.80;;;5.47;;
4963;SDS011;2497;47.410;9.740;2023-06-24T04:35:21;11.00;;;7.17;;
4963;SDS011;2497;47.410;9.740;2023-06-24T04:37:49;10.30;;;5.40;;
4963;SDS011;2497;47.410;9.740;2023-06-24T04:40:17;8.60;;;5.30;;
4963;SDS011;2497;47.410;9.740;2023-06-24T04:42:45;9.50;;;5.90;;
4963;SDS011;2497;47.410;9.740;2023-06-24T04:45:12;11.90;;;5.90;;
4963;SDS011;2497;47.410;9.740;2023-06-24T04:47:39;11.87;;;6.37;;
4963;SDS011;2497;47.410;9.740;2023-06-24T04:50:07;11.77;;;5.80;;
4963;SDS011;2497;47.410;9.740;2023-06-24T04:52:35;7.37;;;5.10;;
4963;SDS011;2497;47.410;9.740;2023-06-24T04:55:04;9.50;;;5.77;;
4963;SDS011;2497;47.410;9.740;2023-06-24T04:57:32;10.60;;;6.10;;
4963;SDS011;2497;47.410;9.740;2023-06-24T05:00:00;10.03;;;5.83;;
4963;SDS011;2497;47.410;9.740;2023-06-24T05:02:27;12.47;;;5.93;;
4963;SDS011;2497;47.410;9.740;2023-06-24T05:04:55;9.57;;;6.40;;
4963;SDS011;2497;47.410;9.740;2023-06-24T05:07:22;9.87;;;5.17;;
4963;SDS011;2497;47.410;9.740;2023-06-24T05:09:49;12.33;;;6.67;;
4963;SDS011;2497;47.410;9.740;2023-06-24T05:12:19;13.10;;;6.30;;
4963;SDS011;2497;47.410;9.740;2023-06-24T05:14:49;10.43;;;6.07;;
4963;SDS011;2497;47.410;9.740;2023-06-24T05:17:17;9.40;;;5.87;;
4963;SDS011;2497;47.410;9.740;2023-06-24T05:19:46;9.20;;;5.93;;
4963;SDS011;2497;47.410;9.740;2023-06-24T05:22:13;8.73;;;6.10;;
4963;SDS011;2497;47.410;9.740;2023-06-24T05:24:42;12.30;;;6.50;;
4963;SDS011;2497;47.410;9.740;2023-06-24T05:27:09;11.50;;;5.90;;
4963;SDS011;2497;47.410;9.740;2023-06-24T05:29:39;9.03;;;5.57;;
4963;SDS011;2497;47.410;9.740;2023-06-24T05:32:06;6.90;;;4.70;;
4963;SDS011;2497;47.410;9.740;2023-06-24T05:34:33;9.50;;;5.67;;
4963;SDS011;2497;47.410;9.740;2023-06-24T05:37:00;9.40;;;5.50;;
4963;SDS011;2497;47.410;9.740;2023-06-24T05:39:28;8.60;;;5.60;;
4963;SDS011;2497;47.410;9.740;2023-06-24T05:41:55;13.13;;;6.60;;
4963;SDS011;2497;47.410;9.740;2023-06-24T05:44:22;9.57;;;5.33;;
4963;SDS011;2497;47.410;9.740;2023-06-24T05:46:53;16.40;;;5.57;;
4963;SDS011;2497;47.410;9.740;2023-06-24T05:49:32;9.23;;;5.70;;
4963;SDS011;2497;47.410;9.740;2023-06-24T05:52:04;10.60;;;6.03;;
4963;SDS011;2497;47.410;9.740;2023-06-24T05:54:33;9.50;;;5.70;;
4963;SDS011;2497;47.410;9.740;2023-06-24T05:57:15;8.00;;;5.23;;
4963;SDS011;2497;47.410;9.740;2023-06-24T05:59:45;11.97;;;6.63;;
4963;SDS011;2497;47.410;9.740;2023-06-24T06:02:29;11.03;;;7.00;;
4963;SDS011;2497;47.410;9.740;2023-06-24T06:05:10;10.57;;;5.77;;
4963;SDS011;2497;47.410;9.740;2023-06-24T06:07:38;13.43;;;6.17;;
4963;SDS011;2497;47.410;9.740;2023-06-24T06:10:05;8.77;;;6.07;;
4963;SDS011;2497;47.410;9.740;2023-06-24T06:12:33;13.10;;;5.90;;
4963;SDS011;2497;47.410;9.740;2023-06-24T06:15:01;12.00;;;6.17;;
4963;SDS011;2497;47.410;9.740;2023-06-24T06:17:35;8.90;;;5.60;;
4963;SDS011;2497;47.410;9.740;2023-06-24T06:20:08;10.77;;;5.80;;
4963;SDS011;2497;47.410;9.740;2023-06-24T06:22:35;9.03;;;6.33;;
4963;SDS011;2497;47.410;9.740;2023-06-24T06:25:04;11.97;;;6.77;;
4963;SDS011;2497;47.410;9.740;2023-06-24T06:27:37;12.60;;;7.43;;
4963;SDS011;2497;47.410;9.740;2023-06-24T06:30:07;14.33;;;8.00;;
4963;SDS011;2497;47.410;9.740;2023-06-24T06:32:36;11.77;;;6.60;;
4963;SDS011;2497;47.410;9.740;2023-06-24T06:35:04;15.43;;;6.90;;
4963;SDS011;2497;47.410;9.740;2023-06-24T06:37:31;13.17;;;7.33;;
4963;SDS011;2497;47.410;9.740;2023-06-24T06:39:58;9.90;;;6.53;;
4963;SDS011;2497;47.410;9.740;2023-06-24T06:42:25;10.53;;;7.00;;
4963;SDS011;2497;47.410;9.740;2023-06-24T06:44:52;16.13;;;6.30;;
4963;SDS011;2497;47.410;9.740;2023-06-24T06:47:19;14.77;;;7.20;;
4963;SDS011;2497;47.410;9.740;2023-06-24T06:49:48;13.50;;;7.30;;
4963;SDS011;2497;47.410;9.740;2023-06-24T06:52:18;9.53;;;6.50;;
4963;SDS011;2497;47.410;9.740;2023-06-24T06:54:45;20.93;;;8.20;;
4963;SDS011;2497;47.410;9.740;2023-06-24T06:57:12;11.27;;;6.30;;
4963;SDS011;2497;47.410;9.740;2023-06-24T06:59:39;12.83;;;8.00;;
4963;SDS011;2497;47.410;9.740;2023-06-24T07:02:06;13.23;;;6.97;;
4963;SDS011;2497;47.410;9.740;2023-06-24T07:04:33;11.40;;;6.63;;
4963;SDS011;2497;47.410;9.740;2023-06-24T07:07:01;13.30;;;6.80;;
4963;SDS011;2497;47.410;9.740;2023-06-24T07:09:28;10.70;;;6.50;;
4963;SDS011;2497;47.410;9.740;2023-06-24T07:11:55;13.93;;;7.10;;
4963;SDS011;2497;47.410;9.740;2023-06-24T07:14:22;17.80;;;8.37;;
4963;SDS011;2497;47.410;9.740;2023-06-24T07:16:49;14.07;;;7.90;;
4963;SDS011;2497;47.410;9.740;2023-06-24T07:19:17;16.10;;;7.00;;
4963;SDS011;2497;47.410;9.740;2023-06-24T07:21:44;15.27;;;7.50;;
4963;SDS011;2497;47.410;9.740;2023-06-24T07:24:12;14.03;;;7.20;;
4963;SDS011;2497;47.410;9.740;2023-06-24T07:26:39;12.80;;;7.10;;
4963;SDS011;2497;47.410;9.740;2023-06-24T07:29:09;9.70;;;6.93;;
4963;SDS011;2497;47.410;9.740;2023-06-24T07:31:36;15.63;;;7.53;;
4963;SDS011;2497;47.410;9.740;2023-06-24T07:34:03;15.37;;;8.43;;
4963;SDS011;2497;47.410;9.740;2023-06-24T07:36:30;12.83;;;6.73;;
4963;SDS011;2497;47.410;9.740;2023-06-24T07:38:57;14.40;;;8.13;;
4963;SDS011;2497;47.410;9.740;2023-06-24T07:41:26;11.53;;;7.60;;
4963;SDS011;2497;47.410;9.740;2023-06-24T07:43:53;20.37;;;7.53;;
4963;SDS011;2497;47.410;9.740;2023-06-24T07:46:20;15.20;;;8.40;;
4963;SDS011;2497;47.410;9.740;2023-06-24T07:48:47;13.40;;;7.80;;
4963;SDS011;2497;47.410;9.740;2023-06-24T07:51:17;12.20;;;7.77;;
4963;SDS011;2497;47.410;9.740;2023-06-24T07:53:46;12.53;;;7.80;;
4963;SDS011;2497;47.410;9.740;2023-06-24T07:56:13;13.60;;;7.87;;
4963;SDS011;2497;47.410;9.740;2023-06-24T07:58:42;14.10;;;7.97;;
4963;SDS011;2497;47.410;9.740;2023-06-24T08:01:09;11.43;;;7.77;;
4963;SDS011;2497;47.410;9.740;2023-06-24T08:03:36;16.63;;;9.23;;
4963;SDS011;2497;47.410;9.740;2023-06-24T08:06:04;14.00;;;8.47;;
4963;SDS011;2497;47.410;9.740;2023-06-24T08:08:31;14.00;;;7.90;;
4963;SDS011;2497;47.410;9.740;2023-06-24T08:11:06;14.37;;;7.90;;
4963;SDS011;2497;47.410;9.740;2023-06-24T08:13:33;14.40;;;7.77;;
4963;SDS011;2497;47.410;9.740;2023-06-24T08:16:08;10.73;;;6.80;;
4963;SDS011;2497;47.410;9.740;2023-06-24T08:18:35;12.07;;;7.10;;
4963;SDS011;2497;47.410;9.740;2023-06-24T08:21:05;12.10;;;8.03;;
4963;SDS011;2497;47.410;9.740;2023-06-24T08:23:32;14.03;;;7.57;;
4963;SDS011;2497;47.410;9.740;2023-06-24T08:26:01;9.50;;;6.60;;
4963;SDS011;2497;47.410;9.740;2023-06-24T08:28:28;10.37;;;7.23;;
4963;SDS011;2497;47.410;9.740;2023-06-24T08:30:55;9.90;;;7.27;;
4963;SDS011;2497;47.410;9.740;2023-06-24T08:33:24;13.17;;;8.00;;
4963;SDS011;2497;47.410;9.740;2023-06-24T08:35:51;15.00;;;7.13;;
4963;SDS011;2497;47.410;9.740;2023-06-24T08:38:18;13.50;;;7.20;;
4963;SDS011;2497;47.410;9.740;2023-06-24T08:40:46;15.63;;;6.77;;
4963;SDS011;2497;47.410;9.740;2023-06-24T08:43:18;11.97;;;6.73;;
4963;SDS011;2497;47.410;9.740;2023-06-24T08:45:54;7.90;;;5.83;;
4963;SDS011;2497;47.410;9.740;2023-06-24T08:48:21;13.40;;;6.80;;
4963;SDS011;2497;47.410;9.740;2023-06-24T08:50:52;10.37;;;6.33;;
4963;SDS011;2497;47.410;9.740;2023-06-24T08:53:22;15.63;;;6.73;;
4963;SDS011;2497;47.410;9.740;2023-06-24T08:55:52;10.17;;;6.33;;
4963;SDS011;2497;47.410;9.740;2023-06-24T08:58:22;10.27;;;6.30;;
4963;SDS011;2497;47.410;9.740;2023-06-24T09:00:50;9.77;;;6.43;;
4963;SDS011;2497;47.410;9.740;2023-06-24T09:03:18;11.20;;;6.90;;
4963;SDS011;2497;47.410;9.740;2023-06-24T09:05:47;11.10;;;7.23;;
4963;SDS011;2497;47.410;9.740;2023-06-24T09:08:14;8.13;;;5.90;;
4963;SDS011;2497;47.410;9.740;2023-06-24T09:13:14;10.07;;;5.80;;
4963;SDS011;2497;47.410;9.740;2023-06-24T09:15:42;11.43;;;5.97;;
4963;SDS011;2497;47.410;9.740;2023-06-24T09:18:09;10.17;;;6.50;;
4963;SDS011;2497;47.410;9.740;2023-06-24T09:20:42;10.20;;;6.13;;
4963;SDS011;2497;47.410;9.740;2023-06-24T09:23:18;10.23;;;6.60;;
4963;SDS011;2497;47.410;9.740;2023-06-24T09:25:51;9.40;;;6.30;;
4963;SDS011;2497;47.410;9.740;2023-06-24T09:28:26;8.30;;;5.23;;
4963;SDS011;2497;47.410;9.740;2023-06-24T09:31:03;11.53;;;6.37;;
4963;SDS011;2497;47.410;9.740;2023-06-24T09:33:31;9.57;;;5.43;;
4963;SDS011;2497;47.410;9.740;2023-06-24T09:36:01;7.90;;;5.17;;
4963;SDS011;2497;47.410;9.740;2023-06-24T09:38:33;7.20;;;5.40;;
4963;SDS011;2497;47.410;9.740;2023-06-24T09:41:03;9.17;;;5.10;;
4963;SDS011;2497;47.410;9.740;2023-06-24T09:43:34;9.97;;;5.33;;
4963;SDS011;2497;47.410;9.740;2023-06-24T09:46:09;6.83;;;4.73;;
4963;SDS011;2497;47.410;9.740;2023-06-24T09:48:36;9.20;;;5.43;;
4963;SDS011;2497;47.410;9.740;2023-06-24T09:51:03;13.00;;;5.50;;
4963;SDS011;2497;47.410;9.740;2023-06-24T09:53:37;6.57;;;4.70;;
4963;SDS011;2497;47.410;9.740;2023-06-24T09:56:04;6.20;;;4.50;;
4963;SDS011;2497;47.410;9.740;2023-06-24T09:58:44;8.67;;;5.20;;
4963;SDS011;2497;47.410;9.740;2023-06-24T10:01:28;6.83;;;4.80;;
4963;SDS011;2497;47.410;9.740;2023-06-24T10:04:17;11.53;;;5.23;;
4963;SDS011;2497;47.410;9.740;2023-06-24T10:06:45;9.80;;;4.13;;
4963;SDS011;2497;47.410;9.740;2023-06-24T10:09:16;7.77;;;3.47;;
4963;SDS011;2497;47.410;9.740;2023-06-24T10:11:45;4.87;;;3.13;;
4963;SDS011;2497;47.410;9.740;2023-06-24T10:14:30;4.43;;;3.47;;
4963;SDS011;2497;47.410;9.740;2023-06-24T10:17:01;4.93;;;3.50;;
4963;SDS011;2497;47.410;9.740;2023-06-24T10:19:29;6.80;;;3.47;;
4963;SDS011;2497;47.410;9.740;2023-06-24T10:21:58;5.87;;;3.30;;
4963;SDS011;2497;47.410;9.740;2023-06-24T10:24:30;10.10;;;4.10;;
4963;SDS011;2497;47.410;9.740;2023-06-24T10:27:01;5.37;;;2.87;;
4963;SDS011;2497;47.410;9.740;2023-06-24T10:29:33;3.80;;;3.00;;
4963;SDS011;2497;47.410;9.740;2023-06-24T10:32:04;3.77;;;3.17;;
4963;SDS011;2497;47.410;9.740;2023-06-24T10:34:42;3.90;;;3.03;;
4963;SDS011;2497;47.410;9.740;2023-06-24T10:37:11;4.90;;;3.27;;
4963;SDS011;2497;47.410;9.740;2023-06-24T10:39:49;4.23;;;3.10;;
4963;SDS011;2497;47.410;9.740;2023-06-24T10:42:29;4.20;;;2.80;;
4963;SDS011;2497;47.410;9.740;2023-06-24T10:45:13;4.50;;;3.13;;
4963;SDS011;2497;47.410;9.740;2023-06-24T10:47:42;4.47;;;2.80;;
4963;SDS011;2497;47.410;9.740;2023-06-24T10:50:11;7.10;;;3.60;;
4963;SDS011;2497;47.410;9.740;2023-06-24T10:52:39;7.87;;;3.20;;
4963;SDS011;2497;47.410;9.740;2023-06-24T10:55:09;12.83;;;2.63;;
4963;SDS011;2497;47.410;9.740;2023-06-24T10:57:36;5.53;;;3.27;;
4963;SDS011;2497;47.410;9.740;2023-06-24T11:00:04;4.37;;;2.80;;
4963;SDS011;2497;47.410;9.740;2023-06-24T11:02:32;7.40;;;2.80;;
4963;SDS011;2497;47.410;9.740;2023-06-24T11:05:01;3.50;;;2.90;;
4963;SDS011;2497;47.410;9.740;2023-06-24T11:07:32;3.57;;;3.00;;
4963;SDS011;2497;47.410;9.740;2023-06-24T11:10:02;9.77;;;2.97;;
4963;SDS011;2497;47.410;9.740;2023-06-24T11:12:33;3.40;;;2.77;;
4963;SDS011;2497;47.410;9.740;2023-06-24T11:15:03;3.20;;;2.30;;
4963;SDS011;2497;47.410;9.740;2023-06-24T11:17:50;4.00;;;2.70;;
4963;SDS011;2497;47.410;9.740;2023-06-24T11:20:17;6.10;;;2.93;;
4963;SDS011;2497;47.410;9.740;2023-06-24T11:22:44;2.87;;;2.30;;
4963;SDS011;2497;47.410;9.740;2023-06-24T11:25:15;3.63;;;2.93;;
4963;SDS011;2497;47.410;9.740;2023-06-24T11:27:45;5.80;;;3.33;;
4963;SDS011;2497;47.410;9.740;2023-06-24T11:30:15;4.33;;;2.63;;
4963;SDS011;2497;47.410;9.740;2023-06-24T11:32:49;3.77;;;2.90;;
4963;SDS011;2497;47.410;9.740;2023-06-24T11:35:22;3.80;;;2.90;;
4963;SDS011;2497;47.410;9.740;2023-06-24T11:37:57;3.70;;;2.40;;
4963;SDS011;2497;47.410;9.740;2023-06-24T11:40:27;3.57;;;2.90;;
4963;SDS011;2497;47.410;9.740;2023-06-24T11:43:04;3.00;;;2.60;;
4963;SDS011;2497;47.410;9.740;2023-06-24T11:45:35;4.00;;;2.70;;
4963;SDS011;2497;47.410;9.740;2023-06-24T11:48:12;6.57;;;3.37;;
4963;SDS011;2497;47.410;9.740;2023-06-24T11:50:54;3.17;;;2.57;;
4963;SDS011;2497;47.410;9.740;2023-06-24T11:53:31;11.53;;;2.87;;
4963;SDS011;2497;47.410;9.740;2023-06-24T11:56:12;4.60;;;3.30;;
4963;SDS011;2497;47.410;9.740;2023-06-24T11:58:42;4.63;;;3.20;;
4963;SDS011;2497;47.410;9.740;2023-06-24T12:01:09;4.00;;;3.27;;
4963;SDS011;2497;47.410;9.740;2023-06-24T12:03:38;3.70;;;2.53;;
4963;SDS011;2497;47.410;9.740;2023-06-24T12:06:08;8.03;;;3.23;;
4963;SDS011;2497;47.410;9.740;2023-06-24T12:31:58;10.00;;;2.87;;
4963;SDS011;2497;47.410;9.740;2023-06-24T12:34:28;3.93;;;3.30;;
4963;SDS011;2497;47.410;9.740;2023-06-24T12:37:01;4.47;;;3.00;;
4963;SDS011;2497;47.410;9.740;2023-06-24T12:39:32;2.77;;;2.50;;
4963;SDS011;2497;47.410;9.740;2023-06-24T12:42:08;5.33;;;3.03;;
4963;SDS011;2497;47.410;9.740;2023-06-24T12:44:36;3.97;;;2.77;;
4963;SDS011;2497;47.410;9.740;2023-06-24T12:47:09;7.47;;;3.40;;
4963;SDS011;2497;47.410;9.740;2023-06-24T12:49:37;7.47;;;3.40;;
4963;SDS011;2497;47.410;9.740;2023-06-24T12:52:09;4.47;;;3.30;;
4963;SDS011;2497;47.410;9.740;2023-06-24T12:54:42;5.83;;;3.50;;
4963;SDS011;2497;47.410;9.740;2023-06-24T12:57:09;5.17;;;3.43;;
4963;SDS011;2497;47.410;9.740;2023-06-24T12:59:36;4.20;;;2.70;;
4963;SDS011;2497;47.410;9.740;2023-06-24T13:02:11;3.67;;;2.90;;
4963;SDS011;2497;47.410;9.740;2023-06-24T13:04:38;6.53;;;3.50;;
4963;SDS011;2497;47.410;9.740;2023-06-24T13:07:05;6.10;;;3.40;;
4963;SDS011;2497;47.410;9.740;2023-06-24T13:09:34;6.07;;;3.70;;
4963;SDS011;2497;47.410;9.740;2023-06-24T13:12:02;3.90;;;2.67;;
4963;SDS011;2497;47.410;9.740;2023-06-24T13:40:46;5.57;;;3.33;;
4963;SDS011;2497;47.410;9.740;2023-06-24T13:43:20;8.73;;;3.27;;
4963;SDS011;2497;47.410;9.740;2023-06-24T13:54:38;4.33;;;3.20;;
4963;SDS011;2497;47.410;9.740;2023-06-24T14:00:35;5.30;;;3.23;;
4963;SDS011;2497;47.410;9.740;2023-06-24T14:11:39;4.13;;;3.00;;
4963;SDS011;2497;47.410;9.740;2023-06-24T14:14:09;4.40;;;2.93;;
4963;SDS011;2497;47.410;9.740;2023-06-24T14:16:37;4.13;;;3.17;;
4963;SDS011;2497;47.410;9.740;2023-06-24T14:19:04;3.63;;;3.00;;
4963;SDS011;2497;47.410;9.740;2023-06-24T14:21:31;4.20;;;2.70;;
4963;SDS011;2497;47.410;9.740;2023-06-24T14:24:00;4.43;;;3.00;;
4963;SDS011;2497;47.410;9.740;2023-06-24T14:26:28;5.00;;;3.30;;
4963;SDS011;2497;47.410;9.740;2023-06-24T14:28:55;5.17;;;3.37;;
4963;SDS011;2497;47.410;9.740;2023-06-24T14:31:22;4.23;;;3.20;;
4963;SDS011;2497;47.410;9.740;2023-06-24T14:33:50;3.43;;;2.93;;
4963;SDS011;2497;47.410;9.740;2023-06-24T14:36:17;4.67;;;2.87;;
4963;SDS011;2497;47.410;9.740;2023-06-24T14:38:44;5.80;;;3.00;;
4963;SDS011;2497;47.410;9.740;2023-06-24T14:41:11;6.20;;;3.63;;
4963;SDS011;2497;47.410;9.740;2023-06-24T14:43:38;5.80;;;3.67;;
4963;SDS011;2497;47.410;9.740;2023-06-24T14:46:06;4.97;;;3.40;;
4963;SDS011;2497;47.410;9.740;2023-06-24T14:48:33;3.80;;;2.83;;
4963;SDS011;2497;47.410;9.740;2023-06-24T14:51:02;8.70;;;3.37;;
4963;SDS011;2497;47.410;9.740;2023-06-24T14:53:29;3.50;;;3.10;;
4963;SDS011;2497;47.410;9.740;2023-06-24T14:55:56;3.23;;;2.60;;
4963;SDS011;2497;47.410;9.740;2023-06-24T14:58:23;3.53;;;2.83;;
4963;SDS011;2497;47.410;9.740;2023-06-24T15:00:50;3.30;;;2.57;;
4963;SDS011;2497;47.410;9.740;2023-06-24T15:03:18;6.17;;;3.47;;
4963;SDS011;2497;47.410;9.740;2023-06-24T15:05:45;4.23;;;3.37;;
4963;SDS011;2497;47.410;9.740;2023-06-24T15:08:14;4.00;;;3.00;;
4963;SDS011;2497;47.410;9.740;2023-06-24T15:10:41;4.60;;;3.30;;
4963;SDS011;2497;47.410;9.740;2023-06-24T15:13:08;6.00;;;3.37;;
4963;SDS011;2497;47.410;9.740;2023-06-24T15:15:35;4.90;;;2.87;;
4963;SDS011;2497;47.410;9.740;2023-06-24T15:18:02;4.60;;;2.90;;
4963;SDS011;2497;47.410;9.740;2023-06-24T15:20:30;4.30;;;3.27;;
4963;SDS011;2497;47.410;9.740;2023-06-24T15:22:57;4.23;;;3.10;;
4963;SDS011;2497;47.410;9.740;2023-06-24T15:25:29;3.83;;;2.97;;
4963;SDS011;2497;47.410;9.740;2023-06-24T15:27:56;4.10;;;3.03;;
4963;SDS011;2497;47.410;9.740;2023-06-24T15:30:24;2.90;;;2.60;;
4963;SDS011;2497;47.410;9.740;2023-06-24T15:32:52;4.40;;;3.30;;
4963;SDS011;2497;47.410;9.740;2023-06-24T15:35:19;4.43;;;2.90;;
4963;SDS011;2497;47.410;9.740;2023-06-24T15:37:46;5.80;;;3.37;;
4963;SDS011;2497;47.410;9.740;2023-06-24T15:40:13;6.47;;;3.87;;
4963;SDS011;2497;47.410;9.740;2023-06-24T15:42:42;9.63;;;4.17;;
4963;SDS011;2497;47.410;9.740;2023-06-24T15:45:09;5.33;;;3.43;;
4963;SDS011;2497;47.410;9.740;2023-06-24T15:47:36;6.00;;;3.63;;
4963;SDS011;2497;47.410;9.740;2023-06-24T15:50:07;8.33;;;3.67;;
4963;SDS011;2497;47.410;9.740;2023-06-24T15:52:35;4.60;;;3.60;;
4963;SDS011;2497;47.410;9.740;2023-06-24T15:55:02;3.90;;;3.07;;
4963;SDS011;2497;47.410;9.740;2023-06-24T15:57:30;9.53;;;3.83;;
4963;SDS011;2497;47.410;9.740;2023-06-24T16:00:03;7.23;;;3.37;;
4963;SDS011;2497;47.410;9.740;2023-06-24T16:02:31;6.83;;;4.07;;
4963;SDS011;2497;47.410;9.740;2023-06-24T16:04:58;17.43;;;3.87;;
4963;SDS011;2497;47.410;9.740;2023-06-24T16:07:30;5.90;;;3.30;;
4963;SDS011;2497;47.410;9.740;2023-06-24T16:10:00;4.50;;;3.30;;
4963;SDS011;2497;47.410;9.740;2023-06-24T16:12:44;5.50;;;3.50;;
4963;SDS011;2497;47.410;9.740;2023-06-24T16:15:12;5.80;;;3.60;;
4963;SDS011;2497;47.410;9.740;2023-06-24T16:17:40;6.37;;;3.17;;
4963;SDS011;2497;47.410;9.740;2023-06-24T16:20:07;4.80;;;3.33;;
4963;SDS011;2497;47.410;9.740;2023-06-24T16:22:39;6.03;;;3.87;;
4963;SDS011;2497;47.410;9.740;2023-06-24T16:25:06;5.63;;;3.93;;
4963;SDS011;2497;47.410;9.740;2023-06-24T16:27:34;7.53;;;3.50;;
4963;SDS011;2497;47.410;9.740;2023-06-24T16:30:01;6.73;;;3.53;;
4963;SDS011;2497;47.410;9.740;2023-06-24T16:32:29;4.67;;;3.20;;
4963;SDS011;2497;47.410;9.740;2023-06-24T16:34:57;4.93;;;2.93;;
4963;SDS011;2497;47.410;9.740;2023-06-24T16:37:24;5.77;;;3.70;;
4963;SDS011;2497;47.410;9.740;2023-06-24T16:39:51;7.40;;;3.43;;
4963;SDS011;2497;47.410;9.740;2023-06-24T16:42:18;4.40;;;3.00;;